sensor_id;sensor_type;location;lat;lon;timestamp;P1;durP1;ratioP1;P2;durP2;ratioP2
71769;SDS011;66386;52.122;5.420;2023-01-26T00:00:48;79.10;;;23.40;;
71769;SDS011;66386;52.122;5.420;2023-01-26T00:03:15;80.13;;;24.33;;
71769;SDS011;66386;52.122;5.420;2023-01-26T00:05:42;79.57;;;24.60;;
71769;SDS011;66386;52.122;5.420;2023-01-26T00:08:09;77.72;;;23.13;;
71769;SDS011;66386;52.122;5.420;2023-01-26T00:10:37;72.10;;;21.63;;
71769;SDS011;66386;52.122;5.420;2023-01-26T00:13:05;71.70;;;22.80;;
71769;SDS011;66386;52.122;5.420;2023-01-26T00:15:33;74.30;;;20.77;;
71769;SDS011;66386;52.122;5.420;2023-01-26T00:18:01;70.13;;;21.27;;
71769;SDS011;66386;52.122;5.420;2023-01-26T00:20:28;67.18;;;20.95;;
71769;SDS011;66386;52.122;5.420;2023-01-26T00:22:55;65.35;;;21.38;;
71769;SDS011;66386;52.122;5.420;2023-01-26T00:25:21;67.85;;;20.00;;
71769;SDS011;66386;52.122;5.420;2023-01-26T00:27:48;67.47;;;19.93;;
71769;SDS011;66386;52.122;5.420;2023-01-26T00:30:14;66.40;;;21.20;;
71769;SDS011;66386;52.122;5.420;2023-01-26T00:32:41;60.65;;;19.73;;
71769;SDS011;66386;52.122;5.420;2023-01-26T00:35:08;65.25;;;19.83;;
71769;SDS011;66386;52.122;5.420;2023-01-26T00:37:35;63.50;;;20.70;;
71769;SDS011;66386;52.122;5.420;2023-01-26T00:40:01;60.90;;;19.87;;
71769;SDS011;66386;52.122;5.420;2023-01-26T00:42:28;62.80;;;18.42;;
71769;SDS011;66386;52.122;5.420;2023-01-26T00:44:54;61.33;;;18.75;;
71769;SDS011;66386;52.122;5.420;2023-01-26T00:47:21;57.95;;;17.48;;
71769;SDS011;66386;52.122;5.420;2023-01-26T00:49:47;63.92;;;19.85;;
71769;SDS011;66386;52.122;5.420;2023-01-26T00:52:14;54.20;;;18.33;;
71769;SDS011;66386;52.122;5.420;2023-01-26T00:54:40;61.08;;;19.17;;
71769;SDS011;66386;52.122;5.420;2023-01-26T00:57:07;69.05;;;21.17;;
71769;SDS011;66386;52.122;5.420;2023-01-26T00:59:33;56.45;;;18.67;;
71769;SDS011;66386;52.122;5.420;2023-01-26T01:02:00;54.70;;;16.38;;
71769;SDS011;66386;52.122;5.420;2023-01-26T01:04:28;57.33;;;17.10;;
71769;SDS011;66386;52.122;5.420;2023-01-26T01:06:58;60.58;;;20.05;;
71769;SDS011;66386;52.122;5.420;2023-01-26T01:09:25;64.47;;;19.85;;
71769;SDS011;66386;52.122;5.420;2023-01-26T01:11:51;57.28;;;17.75;;
71769;SDS011;66386;52.122;5.420;2023-01-26T01:14:18;56.15;;;18.38;;
71769;SDS011;66386;52.122;5.420;2023-01-26T01:16:44;56.20;;;16.63;;
71769;SDS011;66386;52.122;5.420;2023-01-26T01:19:12;59.22;;;17.52;;
71769;SDS011;66386;52.122;5.420;2023-01-26T01:21:40;48.10;;;15.65;;
71769;SDS011;66386;52.122;5.420;2023-01-26T01:24:07;57.95;;;16.38;;
71769;SDS011;66386;52.122;5.420;2023-01-26T01:26:34;49.38;;;15.93;;
71769;SDS011;66386;52.122;5.420;2023-01-26T01:29:00;45.87;;;16.10;;
71769;SDS011;66386;52.122;5.420;2023-01-26T01:31:27;44.08;;;15.63;;
71769;SDS011;66386;52.122;5.420;2023-01-26T01:33:54;45.47;;;16.27;;
71769;SDS011;66386;52.122;5.420;2023-01-26T01:36:22;45.00;;;14.50;;
71769;SDS011;66386;52.122;5.420;2023-01-26T01:38:48;45.92;;;15.35;;
71769;SDS011;66386;52.122;5.420;2023-01-26T01:41:16;44.03;;;15.80;;
71769;SDS011;66386;52.122;5.420;2023-01-26T01:43:44;47.55;;;14.75;;
71769;SDS011;66386;52.122;5.420;2023-01-26T01:46:16;47.08;;;15.10;;
71769;SDS011;66386;52.122;5.420;2023-01-26T01:51:32;44.83;;;15.10;;
71769;SDS011;66386;52.122;5.420;2023-01-26T01:54:05;47.00;;;14.63;;
71769;SDS011;66386;52.122;5.420;2023-01-26T01:56:36;50.58;;;15.23;;
71769;SDS011;66386;52.122;5.420;2023-01-26T01:59:06;48.00;;;14.95;;
71769;SDS011;66386;52.122;5.420;2023-01-26T02:01:35;47.85;;;15.25;;
71769;SDS011;66386;52.122;5.420;2023-01-26T02:04:03;45.10;;;14.95;;
71769;SDS011;66386;52.122;5.420;2023-01-26T02:09:04;54.33;;;16.05;;
71769;SDS011;66386;52.122;5.420;2023-01-26T02:11:35;49.53;;;16.15;;
71769;SDS011;66386;52.122;5.420;2023-01-26T02:14:07;43.58;;;14.32;;
71769;SDS011;66386;52.122;5.420;2023-01-26T02:16:36;45.72;;;14.55;;
71769;SDS011;66386;52.122;5.420;2023-01-26T02:19:11;46.33;;;15.33;;
71769;SDS011;66386;52.122;5.420;2023-01-26T02:21:48;48.15;;;15.35;;
71769;SDS011;66386;52.122;5.420;2023-01-26T02:24:27;43.13;;;16.30;;
71769;SDS011;66386;52.122;5.420;2023-01-26T02:26:59;49.33;;;14.48;;
71769;SDS011;66386;52.122;5.420;2023-01-26T02:29:26;42.70;;;15.85;;
71769;SDS011;66386;52.122;5.420;2023-01-26T02:31:53;45.57;;;15.43;;
71769;SDS011;66386;52.122;5.420;2023-01-26T02:34:20;45.33;;;15.70;;
71769;SDS011;66386;52.122;5.420;2023-01-26T02:36:55;39.63;;;13.95;;
71769;SDS011;66386;52.122;5.420;2023-01-26T02:41:59;41.92;;;13.82;;
71769;SDS011;66386;52.122;5.420;2023-01-26T02:44:44;50.23;;;15.03;;
71769;SDS011;66386;52.122;5.420;2023-01-26T02:47:11;43.10;;;15.43;;
71769;SDS011;66386;52.122;5.420;2023-01-26T02:49:39;47.70;;;14.73;;
71769;SDS011;66386;52.122;5.420;2023-01-26T02:52:13;50.22;;;16.25;;
71769;SDS011;66386;52.122;5.420;2023-01-26T02:54:40;50.05;;;15.48;;
71769;SDS011;66386;52.122;5.420;2023-01-26T02:57:25;46.97;;;14.43;;
71769;SDS011;66386;52.122;5.420;2023-01-26T02:59:52;42.63;;;14.23;;
71769;SDS011;66386;52.122;5.420;2023-01-26T03:02:18;44.05;;;14.85;;
71769;SDS011;66386;52.122;5.420;2023-01-26T03:04:45;45.25;;;14.68;;
71769;SDS011;66386;52.122;5.420;2023-01-26T03:07:12;42.80;;;14.27;;
71769;SDS011;66386;52.122;5.420;2023-01-26T03:09:38;46.27;;;15.43;;
71769;SDS011;66386;52.122;5.420;2023-01-26T03:12:05;52.55;;;17.23;;
71769;SDS011;66386;52.122;5.420;2023-01-26T03:14:32;52.95;;;15.50;;
71769;SDS011;66386;52.122;5.420;2023-01-26T03:16:58;47.17;;;14.98;;
71769;SDS011;66386;52.122;5.420;2023-01-26T03:19:25;46.67;;;16.60;;
71769;SDS011;66386;52.122;5.420;2023-01-26T03:22:10;47.23;;;14.70;;
71769;SDS011;66386;52.122;5.420;2023-01-26T03:24:55;47.50;;;15.30;;
71769;SDS011;66386;52.122;5.420;2023-01-26T03:27:42;45.45;;;15.27;;
71769;SDS011;66386;52.122;5.420;2023-01-26T03:32:41;39.58;;;15.77;;
71769;SDS011;66386;52.122;5.420;2023-01-26T03:35:08;46.10;;;14.20;;
71769;SDS011;66386;52.122;5.420;2023-01-26T03:37:43;47.05;;;15.15;;
71769;SDS011;66386;52.122;5.420;2023-01-26T03:40:10;49.28;;;15.38;;
71769;SDS011;66386;52.122;5.420;2023-01-26T03:42:56;46.20;;;13.45;;
71769;SDS011;66386;52.122;5.420;2023-01-26T03:45:41;41.20;;;13.57;;
71769;SDS011;66386;52.122;5.420;2023-01-26T03:48:26;45.03;;;15.33;;
71769;SDS011;66386;52.122;5.420;2023-01-26T03:51:11;43.13;;;14.27;;
71769;SDS011;66386;52.122;5.420;2023-01-26T03:53:55;35.17;;;13.50;;
71769;SDS011;66386;52.122;5.420;2023-01-26T03:56:40;38.92;;;12.85;;
71769;SDS011;66386;52.122;5.420;2023-01-26T03:59:06;39.45;;;13.77;;
71769;SDS011;66386;52.122;5.420;2023-01-26T04:01:38;42.73;;;14.00;;
71769;SDS011;66386;52.122;5.420;2023-01-26T04:04:06;39.60;;;13.70;;
71769;SDS011;66386;52.122;5.420;2023-01-26T04:06:52;39.40;;;12.25;;
71769;SDS011;66386;52.122;5.420;2023-01-26T04:09:37;37.92;;;13.27;;
71769;SDS011;66386;52.122;5.420;2023-01-26T04:12:06;41.22;;;13.13;;
71769;SDS011;66386;52.122;5.420;2023-01-26T04:14:35;39.53;;;12.60;;
71769;SDS011;66386;52.122;5.420;2023-01-26T04:17:20;38.72;;;13.27;;
71769;SDS011;66386;52.122;5.420;2023-01-26T04:20:05;42.88;;;13.02;;
71769;SDS011;66386;52.122;5.420;2023-01-26T04:22:51;35.60;;;12.20;;
71769;SDS011;66386;52.122;5.420;2023-01-26T04:25:18;40.45;;;13.95;;
71769;SDS011;66386;52.122;5.420;2023-01-26T04:27:46;41.80;;;13.67;;
71769;SDS011;66386;52.122;5.420;2023-01-26T04:30:13;39.05;;;12.85;;
71769;SDS011;66386;52.122;5.420;2023-01-26T04:32:41;39.58;;;13.20;;
71769;SDS011;66386;52.122;5.420;2023-01-26T04:35:08;36.00;;;12.82;;
71769;SDS011;66386;52.122;5.420;2023-01-26T04:37:35;34.28;;;12.63;;
71769;SDS011;66386;52.122;5.420;2023-01-26T04:40:02;37.03;;;13.03;;
71769;SDS011;66386;52.122;5.420;2023-01-26T04:42:29;39.53;;;13.20;;
71769;SDS011;66386;52.122;5.420;2023-01-26T04:44:56;41.13;;;13.50;;
71769;SDS011;66386;52.122;5.420;2023-01-26T04:47:22;38.20;;;13.73;;
71769;SDS011;66386;52.122;5.420;2023-01-26T04:49:49;39.47;;;13.18;;
71769;SDS011;66386;52.122;5.420;2023-01-26T04:52:15;34.77;;;12.83;;
71769;SDS011;66386;52.122;5.420;2023-01-26T04:54:42;36.80;;;11.88;;
71769;SDS011;66386;52.122;5.420;2023-01-26T04:57:08;38.47;;;12.18;;
71769;SDS011;66386;52.122;5.420;2023-01-26T04:59:34;39.13;;;12.48;;
71769;SDS011;66386;52.122;5.420;2023-01-26T05:02:02;35.65;;;12.32;;
71769;SDS011;66386;52.122;5.420;2023-01-26T05:04:28;40.40;;;13.23;;
71769;SDS011;66386;52.122;5.420;2023-01-26T05:06:55;36.45;;;12.95;;
71769;SDS011;66386;52.122;5.420;2023-01-26T05:09:21;38.50;;;12.57;;
71769;SDS011;66386;52.122;5.420;2023-01-26T05:11:47;32.65;;;12.30;;
71769;SDS011;66386;52.122;5.420;2023-01-26T05:14:14;39.47;;;12.55;;
71769;SDS011;66386;52.122;5.420;2023-01-26T05:16:41;32.10;;;12.10;;
71769;SDS011;66386;52.122;5.420;2023-01-26T05:19:07;40.50;;;12.77;;
71769;SDS011;66386;52.122;5.420;2023-01-26T05:21:34;41.28;;;13.38;;
71769;SDS011;66386;52.122;5.420;2023-01-26T05:24:00;38.83;;;11.05;;
71769;SDS011;66386;52.122;5.420;2023-01-26T05:26:27;35.72;;;12.52;;
71769;SDS011;66386;52.122;5.420;2023-01-26T05:28:53;34.93;;;12.10;;
71769;SDS011;66386;52.122;5.420;2023-01-26T05:31:20;37.83;;;12.02;;
71769;SDS011;66386;52.122;5.420;2023-01-26T05:33:46;34.45;;;12.60;;
71769;SDS011;66386;52.122;5.420;2023-01-26T05:36:12;32.58;;;12.40;;
71769;SDS011;66386;52.122;5.420;2023-01-26T05:38:39;39.67;;;13.02;;
71769;SDS011;66386;52.122;5.420;2023-01-26T05:41:06;37.80;;;13.23;;
71769;SDS011;66386;52.122;5.420;2023-01-26T05:43:33;35.60;;;11.48;;
71769;SDS011;66386;52.122;5.420;2023-01-26T05:45:59;33.95;;;12.57;;
71769;SDS011;66386;52.122;5.420;2023-01-26T05:48:25;38.80;;;13.52;;
71769;SDS011;66386;52.122;5.420;2023-01-26T05:50:54;31.90;;;12.00;;
71769;SDS011;66386;52.122;5.420;2023-01-26T05:53:21;40.63;;;13.63;;
71769;SDS011;66386;52.122;5.420;2023-01-26T05:55:48;39.85;;;12.65;;
71769;SDS011;66386;52.122;5.420;2023-01-26T05:58:14;42.17;;;13.52;;
71769;SDS011;66386;52.122;5.420;2023-01-26T06:00:41;36.78;;;13.15;;
71769;SDS011;66386;52.122;5.420;2023-01-26T06:03:07;33.05;;;11.18;;
71769;SDS011;66386;52.122;5.420;2023-01-26T06:05:34;36.57;;;12.60;;
71769;SDS011;66386;52.122;5.420;2023-01-26T06:08:00;39.17;;;11.43;;
71769;SDS011;66386;52.122;5.420;2023-01-26T06:10:27;36.47;;;12.30;;
71769;SDS011;66386;52.122;5.420;2023-01-26T06:12:53;31.20;;;12.50;;
71769;SDS011;66386;52.122;5.420;2023-01-26T06:15:19;36.83;;;11.90;;
71769;SDS011;66386;52.122;5.420;2023-01-26T06:17:46;34.57;;;12.37;;
71769;SDS011;66386;52.122;5.420;2023-01-26T06:20:12;36.97;;;12.00;;
71769;SDS011;66386;52.122;5.420;2023-01-26T06:22:40;31.58;;;11.48;;
71769;SDS011;66386;52.122;5.420;2023-01-26T06:25:06;33.72;;;12.93;;
71769;SDS011;66386;52.122;5.420;2023-01-26T06:27:33;37.15;;;12.65;;
71769;SDS011;66386;52.122;5.420;2023-01-26T06:30:01;36.40;;;13.00;;
71769;SDS011;66386;52.122;5.420;2023-01-26T06:32:27;35.05;;;10.68;;
71769;SDS011;66386;52.122;5.420;2023-01-26T06:34:55;32.35;;;11.65;;
71769;SDS011;66386;52.122;5.420;2023-01-26T06:37:21;38.22;;;13.20;;
71769;SDS011;66386;52.122;5.420;2023-01-26T06:39:48;31.65;;;11.27;;
71769;SDS011;66386;52.122;5.420;2023-01-26T06:42:14;36.07;;;11.70;;
71769;SDS011;66386;52.122;5.420;2023-01-26T06:44:41;36.20;;;12.00;;
71769;SDS011;66386;52.122;5.420;2023-01-26T06:47:07;41.80;;;13.00;;
71769;SDS011;66386;52.122;5.420;2023-01-26T06:49:34;30.60;;;11.20;;
71769;SDS011;66386;52.122;5.420;2023-01-26T06:52:04;29.95;;;11.75;;
71769;SDS011;66386;52.122;5.420;2023-01-26T06:54:47;36.33;;;12.37;;
71769;SDS011;66386;52.122;5.420;2023-01-26T06:57:15;35.05;;;12.15;;
71769;SDS011;66386;52.122;5.420;2023-01-26T06:59:41;35.20;;;11.93;;
71769;SDS011;66386;52.122;5.420;2023-01-26T07:02:18;30.98;;;11.18;;
71769;SDS011;66386;52.122;5.420;2023-01-26T07:04:46;33.40;;;12.13;;
71769;SDS011;66386;52.122;5.420;2023-01-26T07:07:13;36.70;;;12.63;;
71769;SDS011;66386;52.122;5.420;2023-01-26T07:09:40;36.60;;;12.75;;
71769;SDS011;66386;52.122;5.420;2023-01-26T07:12:07;32.83;;;11.48;;
71769;SDS011;66386;52.122;5.420;2023-01-26T07:14:34;34.10;;;11.23;;
71769;SDS011;66386;52.122;5.420;2023-01-26T07:17:01;27.40;;;10.23;;
71769;SDS011;66386;52.122;5.420;2023-01-26T07:19:27;29.40;;;9.70;;
71769;SDS011;66386;52.122;5.420;2023-01-26T07:21:56;33.40;;;11.75;;
71769;SDS011;66386;52.122;5.420;2023-01-26T07:24:23;43.10;;;12.57;;
71769;SDS011;66386;52.122;5.420;2023-01-26T07:26:50;34.97;;;11.93;;
71769;SDS011;66386;52.122;5.420;2023-01-26T07:29:16;32.45;;;12.18;;
71769;SDS011;66386;52.122;5.420;2023-01-26T07:31:43;36.07;;;11.47;;
71769;SDS011;66386;52.122;5.420;2023-01-26T07:34:10;39.72;;;11.48;;
71769;SDS011;66386;52.122;5.420;2023-01-26T07:36:36;40.22;;;11.90;;
71769;SDS011;66386;52.122;5.420;2023-01-26T07:39:03;39.67;;;12.98;;
71769;SDS011;66386;52.122;5.420;2023-01-26T07:41:33;34.67;;;11.93;;
71769;SDS011;66386;52.122;5.420;2023-01-26T07:44:00;38.67;;;12.07;;
71769;SDS011;66386;52.122;5.420;2023-01-26T07:46:27;43.85;;;11.90;;
71769;SDS011;66386;52.122;5.420;2023-01-26T07:48:53;45.60;;;13.40;;
71769;SDS011;66386;52.122;5.420;2023-01-26T07:51:20;40.00;;;11.52;;
71769;SDS011;66386;52.122;5.420;2023-01-26T07:53:46;42.25;;;12.10;;
71769;SDS011;66386;52.122;5.420;2023-01-26T07:56:16;41.53;;;13.40;;
71769;SDS011;66386;52.122;5.420;2023-01-26T07:58:51;57.22;;;13.40;;
71769;SDS011;66386;52.122;5.420;2023-01-26T08:01:19;36.25;;;11.55;;
71769;SDS011;66386;52.122;5.420;2023-01-26T08:03:48;37.80;;;13.27;;
71769;SDS011;66386;52.122;5.420;2023-01-26T08:06:15;40.65;;;12.98;;
71769;SDS011;66386;52.122;5.420;2023-01-26T08:08:44;53.77;;;13.30;;
71769;SDS011;66386;52.122;5.420;2023-01-26T08:11:11;56.22;;;12.73;;
71769;SDS011;66386;52.122;5.420;2023-01-26T08:13:38;43.08;;;12.23;;
71769;SDS011;66386;52.122;5.420;2023-01-26T08:16:06;48.28;;;14.20;;
71769;SDS011;66386;52.122;5.420;2023-01-26T08:18:37;44.58;;;14.05;;
71769;SDS011;66386;52.122;5.420;2023-01-26T08:21:08;50.30;;;12.33;;
71769;SDS011;66386;52.122;5.420;2023-01-26T08:23:35;40.30;;;12.13;;
71769;SDS011;66386;52.122;5.420;2023-01-26T08:26:03;46.60;;;12.50;;
71769;SDS011;66386;52.122;5.420;2023-01-26T08:28:31;41.03;;;11.98;;
71769;SDS011;66386;52.122;5.420;2023-01-26T08:33:32;36.60;;;12.53;;
71769;SDS011;66386;52.122;5.420;2023-01-26T08:36:02;51.92;;;14.10;;
71769;SDS011;66386;52.122;5.420;2023-01-26T08:38:30;41.42;;;11.60;;
71769;SDS011;66386;52.122;5.420;2023-01-26T08:40:58;47.65;;;11.85;;
71769;SDS011;66386;52.122;5.420;2023-01-26T08:43:28;45.30;;;13.65;;
71769;SDS011;66386;52.122;5.420;2023-01-26T08:45:55;53.87;;;13.77;;
71769;SDS011;66386;52.122;5.420;2023-01-26T08:48:22;37.83;;;11.82;;
71769;SDS011;66386;52.122;5.420;2023-01-26T08:50:52;43.00;;;12.60;;
71769;SDS011;66386;52.122;5.420;2023-01-26T08:53:20;36.00;;;11.48;;
71769;SDS011;66386;52.122;5.420;2023-01-26T08:55:47;42.60;;;12.10;;
71769;SDS011;66386;52.122;5.420;2023-01-26T08:58:17;42.07;;;11.63;;
71769;SDS011;66386;52.122;5.420;2023-01-26T09:00:43;36.75;;;11.68;;
71769;SDS011;66386;52.122;5.420;2023-01-26T09:03:10;32.83;;;11.35;;
71769;SDS011;66386;52.122;5.420;2023-01-26T09:05:38;36.03;;;10.77;;
71769;SDS011;66386;52.122;5.420;2023-01-26T09:08:06;33.30;;;10.82;;
71769;SDS011;66386;52.122;5.420;2023-01-26T09:10:35;41.67;;;11.63;;
71769;SDS011;66386;52.122;5.420;2023-01-26T09:13:03;40.58;;;10.20;;
71769;SDS011;66386;52.122;5.420;2023-01-26T09:15:29;32.85;;;9.20;;
71769;SDS011;66386;52.122;5.420;2023-01-26T09:17:56;33.35;;;9.75;;
71769;SDS011;66386;52.122;5.420;2023-01-26T09:20:26;35.33;;;10.85;;
71769;SDS011;66386;52.122;5.420;2023-01-26T09:22:52;35.20;;;9.67;;
71769;SDS011;66386;52.122;5.420;2023-01-26T09:25:19;34.10;;;11.18;;
71769;SDS011;66386;52.122;5.420;2023-01-26T09:27:46;35.92;;;10.07;;
71769;SDS011;66386;52.122;5.420;2023-01-26T09:30:12;30.25;;;9.98;;
71769;SDS011;66386;52.122;5.420;2023-01-26T09:32:39;28.08;;;9.70;;
71769;SDS011;66386;52.122;5.420;2023-01-26T09:35:06;29.13;;;7.90;;
71769;SDS011;66386;52.122;5.420;2023-01-26T09:37:40;34.92;;;9.18;;
71769;SDS011;66386;52.122;5.420;2023-01-26T09:40:09;29.25;;;8.25;;
71769;SDS011;66386;52.122;5.420;2023-01-26T09:42:57;25.33;;;7.53;;
71769;SDS011;66386;52.122;5.420;2023-01-26T09:45:29;30.92;;;6.93;;
71769;SDS011;66386;52.122;5.420;2023-01-26T09:48:08;33.83;;;7.10;;
71769;SDS011;66386;52.122;5.420;2023-01-26T09:50:45;21.60;;;7.32;;
71769;SDS011;66386;52.122;5.420;2023-01-26T09:53:22;25.75;;;6.40;;
71769;SDS011;66386;52.122;5.420;2023-01-26T09:55:52;28.10;;;7.68;;
71769;SDS011;66386;52.122;5.420;2023-01-26T09:58:24;22.25;;;6.45;;
71769;SDS011;66386;52.122;5.420;2023-01-26T10:01:00;21.97;;;5.73;;
71769;SDS011;66386;52.122;5.420;2023-01-26T10:08:33;20.02;;;5.22;;
71769;SDS011;66386;52.122;5.420;2023-01-26T10:11:00;19.83;;;5.38;;
71769;SDS011;66386;52.122;5.420;2023-01-26T10:13:32;20.13;;;4.17;;
71769;SDS011;66386;52.122;5.420;2023-01-26T10:16:00;17.00;;;3.90;;
71769;SDS011;66386;52.122;5.420;2023-01-26T10:18:32;25.05;;;3.67;;
71769;SDS011;66386;52.122;5.420;2023-01-26T10:21:05;10.63;;;1.75;;
71769;SDS011;66386;52.122;5.420;2023-01-26T10:23:34;17.70;;;2.58;;
71769;SDS011;66386;52.122;5.420;2023-01-26T10:26:06;12.57;;;2.00;;
71769;SDS011;66386;52.122;5.420;2023-01-26T10:28:38;10.32;;;1.27;;
71769;SDS011;66386;52.122;5.420;2023-01-26T10:31:17;21.05;;;1.90;;
71769;SDS011;66386;52.122;5.420;2023-01-26T10:33:53;16.95;;;1.80;;
71769;SDS011;66386;52.122;5.420;2023-01-26T10:36:33;16.15;;;2.17;;
71769;SDS011;66386;52.122;5.420;2023-01-26T10:39:04;16.90;;;2.03;;
71769;SDS011;66386;52.122;5.420;2023-01-26T10:41:35;16.05;;;1.90;;
71769;SDS011;66386;52.122;5.420;2023-01-26T10:46:35;14.48;;;1.23;;
71769;SDS011;66386;52.122;5.420;2023-01-26T10:51:33;12.30;;;1.57;;
71769;SDS011;66386;52.122;5.420;2023-01-26T10:56:54;9.35;;;1.17;;
71769;SDS011;66386;52.122;5.420;2023-01-26T11:02:14;15.98;;;1.90;;
71769;SDS011;66386;52.122;5.420;2023-01-26T11:05:03;7.90;;;1.13;;
71769;SDS011;66386;52.122;5.420;2023-01-26T11:07:33;14.68;;;1.23;;
71769;SDS011;66386;52.122;5.420;2023-01-26T11:10:17;10.57;;;1.15;;
71769;SDS011;66386;52.122;5.420;2023-01-26T11:12:50;13.95;;;2.22;;
71769;SDS011;66386;52.122;5.420;2023-01-26T11:15:34;10.00;;;1.20;;
71769;SDS011;66386;52.122;5.420;2023-01-26T11:18:10;10.53;;;1.20;;
71769;SDS011;66386;52.122;5.420;2023-01-26T11:20:53;14.40;;;1.48;;
71769;SDS011;66386;52.122;5.420;2023-01-26T11:23:35;14.63;;;1.25;;
71769;SDS011;66386;52.122;5.420;2023-01-26T11:32:15;14.27;;;1.17;;
71769;SDS011;66386;52.122;5.420;2023-01-26T11:46:50;9.00;;;1.03;;
71769;SDS011;66386;52.122;5.420;2023-01-26T11:58:28;9.93;;;1.75;;
71769;SDS011;66386;52.122;5.420;2023-01-26T12:01:14;20.17;;;2.07;;
71769;SDS011;66386;52.122;5.420;2023-01-26T12:03:49;14.80;;;1.15;;
71769;SDS011;66386;52.122;5.420;2023-01-26T12:06:36;9.27;;;0.98;;
71769;SDS011;66386;52.122;5.420;2023-01-26T12:09:06;9.13;;;1.10;;
71769;SDS011;66386;52.122;5.420;2023-01-26T12:11:46;17.30;;;1.40;;
71769;SDS011;66386;52.122;5.420;2023-01-26T12:17:31;11.07;;;1.20;;
71769;SDS011;66386;52.122;5.420;2023-01-26T12:22:38;9.85;;;0.70;;
71769;SDS011;66386;52.122;5.420;2023-01-26T12:33:23;12.18;;;1.20;;
71769;SDS011;66386;52.122;5.420;2023-01-26T12:43:43;8.68;;;0.93;;
71769;SDS011;66386;52.122;5.420;2023-01-26T12:46:31;15.25;;;1.17;;
71769;SDS011;66386;52.122;5.420;2023-01-26T12:49:15;11.02;;;0.70;;
71769;SDS011;66386;52.122;5.420;2023-01-26T12:51:49;8.93;;;0.70;;
71769;SDS011;66386;52.122;5.420;2023-01-26T12:56:52;8.65;;;0.90;;
71769;SDS011;66386;52.122;5.420;2023-01-26T12:59:32;6.75;;;0.50;;
71769;SDS011;66386;52.122;5.420;2023-01-26T13:04:41;11.45;;;1.10;;
71769;SDS011;66386;52.122;5.420;2023-01-26T13:12:46;11.95;;;1.05;;
71769;SDS011;66386;52.122;5.420;2023-01-26T13:15:19;8.98;;;0.80;;
71769;SDS011;66386;52.122;5.420;2023-01-26T13:23:45;12.23;;;1.27;;
71769;SDS011;66386;52.122;5.420;2023-01-26T13:28:40;9.05;;;1.40;;
71769;SDS011;66386;52.122;5.420;2023-01-26T13:31:06;8.55;;;0.95;;
71769;SDS011;66386;52.122;5.420;2023-01-26T13:33:35;13.43;;;1.27;;
71769;SDS011;66386;52.122;5.420;2023-01-26T13:36:02;6.50;;;0.50;;
71769;SDS011;66386;52.122;5.420;2023-01-26T13:38:38;7.82;;;0.93;;
71769;SDS011;66386;52.122;5.420;2023-01-26T13:41:18;8.07;;;1.25;;
71769;SDS011;66386;52.122;5.420;2023-01-26T13:43:53;9.13;;;0.82;;
71769;SDS011;66386;52.122;5.420;2023-01-26T13:46:33;9.43;;;1.10;;
71769;SDS011;66386;52.122;5.420;2023-01-26T13:52:40;6.45;;;0.70;;
71769;SDS011;66386;52.122;5.420;2023-01-26T13:54:57;10.20;;;1.23;;
71769;SDS011;66386;52.122;5.420;2023-01-26T13:57:27;9.82;;;0.93;;
71769;SDS011;66386;52.122;5.420;2023-01-26T13:59:56;11.00;;;0.77;;
71769;SDS011;66386;52.122;5.420;2023-01-26T14:02:31;12.38;;;1.95;;
71769;SDS011;66386;52.122;5.420;2023-01-26T14:05:00;6.93;;;0.73;;
71769;SDS011;66386;52.122;5.420;2023-01-26T14:07:33;5.65;;;0.57;;
71769;SDS011;66386;52.122;5.420;2023-01-26T14:10:05;9.35;;;0.75;;
71769;SDS011;66386;52.122;5.420;2023-01-26T14:12:41;8.70;;;0.53;;
71769;SDS011;66386;52.122;5.420;2023-01-26T14:15:18;13.07;;;0.90;;
71769;SDS011;66386;52.122;5.420;2023-01-26T14:17:55;7.18;;;1.00;;
71769;SDS011;66386;52.122;5.420;2023-01-26T14:20:30;8.27;;;0.85;;
71769;SDS011;66386;52.122;5.420;2023-01-26T14:25:46;6.63;;;0.70;;
71769;SDS011;66386;52.122;5.420;2023-01-26T14:28:22;10.43;;;1.23;;
71769;SDS011;66386;52.122;5.420;2023-01-26T14:31:04;6.97;;;0.65;;
71769;SDS011;66386;52.122;5.420;2023-01-26T14:33:40;6.47;;;0.65;;
71769;SDS011;66386;52.122;5.420;2023-01-26T14:36:11;6.18;;;0.88;;
71769;SDS011;66386;52.122;5.420;2023-01-26T14:38:42;9.37;;;0.80;;
71769;SDS011;66386;52.122;5.420;2023-01-26T14:41:17;8.48;;;1.17;;
71769;SDS011;66386;52.122;5.420;2023-01-26T14:43:50;9.07;;;0.80;;
71769;SDS011;66386;52.122;5.420;2023-01-26T14:46:24;9.98;;;0.73;;
71769;SDS011;66386;52.122;5.420;2023-01-26T14:48:58;7.95;;;0.70;;
71769;SDS011;66386;52.122;5.420;2023-01-26T14:51:27;5.23;;;0.70;;
71769;SDS011;66386;52.122;5.420;2023-01-26T14:53:59;7.07;;;0.95;;
71769;SDS011;66386;52.122;5.420;2023-01-26T14:56:39;6.57;;;1.00;;
71769;SDS011;66386;52.122;5.420;2023-01-26T14:59:06;5.63;;;0.60;;
71769;SDS011;66386;52.122;5.420;2023-01-26T15:01:40;7.90;;;0.70;;
71769;SDS011;66386;52.122;5.420;2023-01-26T15:04:15;9.07;;;1.03;;
71769;SDS011;66386;52.122;5.420;2023-01-26T15:06:56;4.82;;;0.60;;
71769;SDS011;66386;52.122;5.420;2023-01-26T15:09:52;10.18;;;1.15;;
71769;SDS011;66386;52.122;5.420;2023-01-26T15:12:18;9.35;;;0.70;;
71769;SDS011;66386;52.122;5.420;2023-01-26T15:14:48;5.90;;;0.70;;
71769;SDS011;66386;52.122;5.420;2023-01-26T15:17:26;7.73;;;1.03;;
71769;SDS011;66386;52.122;5.420;2023-01-26T15:19:55;4.43;;;0.77;;
71769;SDS011;66386;52.122;5.420;2023-01-26T15:22:22;4.97;;;2.20;;
71769;SDS011;66386;52.122;5.420;2023-01-26T15:25:25;8.13;;;1.27;;
71769;SDS011;66386;52.122;5.420;2023-01-26T15:27:58;6.97;;;0.80;;
71769;SDS011;66386;52.122;5.420;2023-01-26T15:30:26;9.63;;;0.93;;
71769;SDS011;66386;52.122;5.420;2023-01-26T15:32:55;14.38;;;1.25;;
71769;SDS011;66386;52.122;5.420;2023-01-26T15:35:26;7.93;;;1.00;;
71769;SDS011;66386;52.122;5.420;2023-01-26T15:38:00;7.97;;;1.02;;
71769;SDS011;66386;52.122;5.420;2023-01-26T15:40:34;6.60;;;1.80;;
71769;SDS011;66386;52.122;5.420;2023-01-26T15:43:08;6.73;;;1.03;;
71769;SDS011;66386;52.122;5.420;2023-01-26T15:45:38;5.72;;;0.70;;
71769;SDS011;66386;52.122;5.420;2023-01-26T15:48:05;9.20;;;1.05;;
71769;SDS011;66386;52.122;5.420;2023-01-26T15:50:32;6.60;;;1.27;;
71769;SDS011;66386;52.122;5.420;2023-01-26T15:52:58;11.93;;;1.90;;
71769;SDS011;66386;52.122;5.420;2023-01-26T15:55:28;7.93;;;1.00;;
71769;SDS011;66386;52.122;5.420;2023-01-26T15:57:57;8.07;;;1.10;;
71769;SDS011;66386;52.122;5.420;2023-01-26T16:00:24;7.90;;;1.55;;
71769;SDS011;66386;52.122;5.420;2023-01-26T16:02:50;5.13;;;0.60;;
71769;SDS011;66386;52.122;5.420;2023-01-26T16:05:18;9.30;;;1.00;;
71769;SDS011;66386;52.122;5.420;2023-01-26T16:07:48;7.03;;;1.00;;
71769;SDS011;66386;52.122;5.420;2023-01-26T16:10:15;8.85;;;1.00;;
71769;SDS011;66386;52.122;5.420;2023-01-26T16:12:43;3.35;;;0.60;;
71769;SDS011;66386;52.122;5.420;2023-01-26T16:15:24;5.38;;;0.90;;
71769;SDS011;66386;52.122;5.420;2023-01-26T16:18:08;8.65;;;1.10;;
71769;SDS011;66386;52.122;5.420;2023-01-26T16:20:35;5.13;;;0.80;;
71769;SDS011;66386;52.122;5.420;2023-01-26T16:23:05;4.38;;;0.52;;
71769;SDS011;66386;52.122;5.420;2023-01-26T16:25:42;9.88;;;0.88;;
71769;SDS011;66386;52.122;5.420;2023-01-26T16:28:08;2.95;;;0.45;;
71769;SDS011;66386;52.122;5.420;2023-01-26T16:30:35;3.70;;;0.32;;